Time;durP1;ratioP1;P1;durP2;ratioP2;P2;SDS_P1;SDS_P2;PMS_P1;PMS_P2;Temp;Humidity;BMP_temperature;BMP_pressure;BME280_temperature;BME280_humidity;BME280_pressure;Samples;Min_cycle;Max_cycle;Signal;HPM_P1;HPM_P2
2020/12/03 00:00:38;;;;;;;32.08;16.02;;;1.20;99.90;;;;;;5071396;28;20308;-86
2020/12/03 00:03:13;;;;;;;33.08;14.63;;;1.20;99.90;;;;;;5072783;28;20240;-86
2020/12/03 00:05:40;;;;;;;34.95;16.33;;;1.20;99.90;;;;;;5072420;28;20217;-86
2020/12/03 00:08:07;;;;;;;36.78;17.00;;;1.30;99.90;;;;;;5072949;28;20628;-86
2020/12/03 00:10:33;;;;;;;32.28;16.65;;;1.30;99.90;;;;;;5069839;28;20256;-86
2020/12/03 00:13:02;;;;;;;28.20;14.60;;;1.20;99.90;;;;;;5072757;28;20270;-86
2020/12/03 00:15:29;;;;;;;32.00;16.60;;;1.30;99.90;;;;;;5071970;28;20342;-85
2020/12/03 00:17:57;;;;;;;29.35;16.50;;;1.20;99.90;;;;;;5072752;28;20240;-85
2020/12/03 00:20:23;;;;;;;36.13;16.63;;;1.20;99.90;;;;;;5073468;28;20256;-86
2020/12/03 00:22:50;;;;;;;36.00;18.67;;;1.20;99.90;;;;;;5073733;28;20254;-85
2020/12/03 00:25:16;;;;;;;32.58;14.75;;;1.20;99.90;;;;;;5039018;28;20232;-85
2020/12/03 00:27:48;;;;;;;29.55;15.63;;;1.30;99.90;;;;;;5074353;28;20281;-85
2020/12/03 00:30:14;;;;;;;37.42;19.38;;;1.30;99.90;;;;;;5072937;28;20240;-85
2020/12/03 00:32:41;;;;;;;34.17;15.85;;;1.20;99.90;;;;;;5075293;28;20233;-86
2020/12/03 00:35:08;;;;;;;26.63;16.67;;;1.30;99.90;;;;;;5092182;28;20205;-85
2020/12/03 00:37:35;;;;;;;34.42;17.27;;;1.30;99.90;;;;;;5094362;28;20575;-85
2020/12/03 00:40:01;;;;;;;32.13;17.20;;;1.30;99.90;;;;;;5098268;28;20193;-85
2020/12/03 00:42:27;;;;;;;33.30;18.23;;;1.30;99.90;;;;;;5089541;28;20210;-85
2020/12/03 00:44:54;;;;;;;28.52;15.45;;;1.20;99.90;;;;;;5057408;28;20321;-86
2020/12/03 00:47:21;;;;;;;29.10;17.13;;;1.20;99.90;;;;;;5056303;28;20284;-85
2020/12/03 00:49:48;;;;;;;37.00;17.80;;;1.20;99.90;;;;;;5056089;28;20257;-85
2020/12/03 00:52:15;;;;;;;35.65;15.65;;;1.20;99.90;;;;;;5056187;28;20644;-85
2020/12/03 00:54:42;;;;;;;32.72;16.92;;;1.30;99.90;;;;;;5057401;28;20225;-85
2020/12/03 00:57:10;;;;;;;28.73;16.65;;;1.30;99.90;;;;;;5072265;28;20210;-85
2020/12/03 00:59:37;;;;;;;29.88;15.02;;;1.20;99.90;;;;;;5078484;28;20190;-86
2020/12/03 01:02:06;;;;;;;37.60;18.08;;;1.20;99.90;;;;;;5073587;28;20206;-87
2020/12/03 01:04:32;;;;;;;33.47;17.05;;;1.30;99.90;;;;;;5057252;28;20608;-85
2020/12/03 01:06:59;;;;;;;38.55;18.45;;;1.30;99.90;;;;;;5056739;28;20233;-85
2020/12/03 01:09:26;;;;;;;32.45;14.77;;;1.30;99.90;;;;;;5065512;28;20236;-86
2020/12/03 01:11:53;;;;;;;32.08;17.40;;;1.30;99.90;;;;;;5075208;28;20328;-85
2020/12/03 01:14:19;;;;;;;29.70;16.50;;;1.40;99.90;;;;;;5075342;28;20229;-86
2020/12/03 01:16:46;;;;;;;29.15;16.30;;;1.30;99.90;;;;;;5074381;28;20288;-86
2020/12/03 01:19:12;;;;;;;29.08;13.88;;;1.30;99.90;;;;;;5075288;28;20297;-86
2020/12/03 01:21:39;;;;;;;35.92;14.70;;;1.30;99.90;;;;;;5075210;28;20245;-85
2020/12/03 01:24:05;;;;;;;26.05;15.00;;;1.30;99.90;;;;;;5075084;28;20297;-85
2020/12/03 01:26:32;;;;;;;24.92;14.95;;;1.30;99.90;;;;;;5075141;28;20198;-85
2020/12/03 01:28:59;;;;;;;33.97;16.52;;;1.30;99.90;;;;;;5075208;28;20299;-85
2020/12/03 01:31:31;;;;;;;35.00;16.48;;;1.30;99.90;;;;;;5073785;28;20316;-86
2020/12/03 01:33:58;;;;;;;32.60;17.48;;;1.30;99.90;;;;;;5075189;28;20626;-85
2020/12/03 01:36:24;;;;;;;28.80;16.15;;;1.30;99.90;;;;;;5068922;28;20591;-84
2020/12/03 01:38:51;;;;;;;27.52;16.15;;;1.30;99.90;;;;;;5074922;28;20724;-85
2020/12/03 01:41:18;;;;;;;31.85;14.48;;;1.30;99.90;;;;;;5074994;28;20438;-86
2020/12/03 01:43:45;;;;;;;30.17;15.45;;;1.30;99.90;;;;;;5074390;28;20543;-85
2020/12/03 01:46:13;;;;;;;36.83;15.23;;;1.40;99.90;;;;;;5074226;28;20229;-85
2020/12/03 01:48:43;;;;;;;27.63;16.50;;;1.30;99.90;;;;;;5075395;28;20668;-84
2020/12/03 01:51:16;;;;;;;26.15;14.45;;;1.20;99.90;;;;;;5075876;28;20229;-84
2020/12/03 01:53:43;;;;;;;24.05;16.60;;;1.30;99.90;;;;;;5080095;28;20331;-84
2020/12/03 01:56:40;;;;;;;31.35;17.45;;;1.30;99.90;;;;;;5085816;28;20205;-84
2020/12/03 01:59:08;;;;;;;32.22;17.15;;;1.30;99.90;;;;;;5092188;28;20201;-85
2020/12/03 02:01:35;;;;;;;32.63;16.83;;;1.30;99.90;;;;;;5097515;28;20201;-84
2020/12/03 02:04:02;;;;;;;40.20;18.27;;;1.30;99.90;;;;;;5090329;28;20197;-85
2020/12/03 02:06:33;;;;;;;37.40;16.17;;;1.30;99.90;;;;;;5092917;28;20189;-85
2020/12/03 02:09:00;;;;;;;29.67;16.27;;;1.20;99.90;;;;;;5085124;28;20390;-85
2020/12/03 02:11:26;;;;;;;28.55;17.15;;;1.30;99.90;;;;;;5076210;28;20271;-85
2020/12/03 02:13:55;;;;;;;25.70;14.43;;;1.30;99.90;;;;;;5075666;28;20273;-84
2020/12/03 02:16:24;;;;;;;32.97;17.67;;;1.30;99.90;;;;;;5073690;28;20284;-85
2020/12/03 02:18:51;;;;;;;33.08;15.65;;;1.30;99.90;;;;;;5073982;28;20288;-85
2020/12/03 02:21:18;;;;;;;32.63;16.05;;;1.30;99.90;;;;;;5074121;28;20465;-84
2020/12/03 02:23:45;;;;;;;28.45;14.27;;;1.30;99.90;;;;;;5074180;28;20262;-84
2020/12/03 02:26:12;;;;;;;32.42;16.30;;;1.30;99.90;;;;;;5071038;28;20584;-84
2020/12/03 02:28:39;;;;;;;38.50;15.95;;;1.30;99.90;;;;;;5073752;28;20236;-84
2020/12/03 02:31:06;;;;;;;40.83;16.67;;;1.30;99.90;;;;;;5073225;28;20312;-85
2020/12/03 02:33:32;;;;;;;42.67;17.40;;;1.30;99.90;;;;;;5073460;28;20649;-85
2020/12/03 02:35:59;;;;;;;31.85;16.90;;;1.30;99.90;;;;;;5070746;28;20288;-85
2020/12/03 02:38:29;;;;;;;31.00;16.58;;;1.30;99.90;;;;;;5073793;28;20284;-85
2020/12/03 02:40:56;;;;;;;28.98;13.70;;;1.30;99.90;;;;;;5073554;28;20294;-86
2020/12/03 02:43:22;;;;;;;29.15;15.15;;;1.30;99.90;;;;;;5073661;28;20265;-86
2020/12/03 02:45:49;;;;;;;31.48;15.88;;;1.20;99.90;;;;;;5053440;28;20285;-84
2020/12/03 02:48:15;;;;;;;29.48;15.32;;;1.20;99.90;;;;;;5053520;28;20717;-85
2020/12/03 02:50:42;;;;;;;27.10;15.88;;;1.30;99.90;;;;;;5053540;28;20725;-86
2020/12/03 02:53:08;;;;;;;26.20;13.23;;;1.20;99.90;;;;;;5053420;28;20638;-84
2020/12/03 02:55:36;;;;;;;39.30;16.75;;;1.30;99.90;;;;;;5053459;28;20611;-85
2020/12/03 02:58:03;;;;;;;27.92;14.80;;;1.30;99.90;;;;;;5046719;28;20233;-84
2020/12/03 03:00:30;;;;;;;33.85;17.50;;;1.30;99.90;;;;;;5052484;28;20618;-84
2020/12/03 03:02:56;;;;;;;27.83;14.35;;;1.20;99.90;;;;;;5052487;28;20241;-85
2020/12/03 03:05:22;;;;;;;27.30;17.27;;;1.30;99.90;;;;;;5056171;28;20251;-85
2020/12/03 03:07:50;;;;;;;37.85;16.70;;;1.30;99.90;;;;;;5073125;28;20237;-84
2020/12/03 03:10:16;;;;;;;33.67;16.42;;;1.30;99.90;;;;;;5073260;28;20229;-84
2020/12/03 03:12:48;;;;;;;22.27;14.63;;;1.30;99.90;;;;;;5073184;28;20295;-84
2020/12/03 03:15:16;;;;;;;34.53;18.05;;;1.30;99.90;;;;;;5071955;28;20297;-87
2020/12/03 03:17:42;;;;;;;34.17;17.38;;;1.30;99.90;;;;;;5073054;28;20221;-85
2020/12/03 03:20:09;;;;;;;25.33;14.55;;;1.20;99.90;;;;;;5073191;28;20251;-87
2020/12/03 03:22:36;;;;;;;32.53;16.35;;;1.30;99.90;;;;;;5073059;28;20717;-84
2020/12/03 03:25:03;;;;;;;32.80;15.65;;;1.30;99.90;;;;;;5073004;28;20245;-84
2020/12/03 03:27:30;;;;;;;28.85;15.57;;;1.30;99.90;;;;;;5072833;28;20296;-84
2020/12/03 03:29:57;;;;;;;27.80;14.60;;;1.30;99.90;;;;;;5071609;28;20244;-86
2020/12/03 03:32:23;;;;;;;29.05;15.70;;;1.30;99.90;;;;;;5072814;28;20673;-86
2020/12/03 03:34:50;;;;;;;32.80;18.20;;;1.30;99.90;;;;;;5072982;28;20229;-84
2020/12/03 03:37:17;;;;;;;28.05;15.50;;;1.30;99.90;;;;;;5072762;28;20731;-85
2020/12/03 03:39:43;;;;;;;34.67;16.95;;;1.20;99.90;;;;;;5072896;28;20610;-84
2020/12/03 03:42:10;;;;;;;28.15;15.05;;;1.30;99.90;;;;;;5073366;28;20623;-85
2020/12/03 03:44:36;;;;;;;30.08;17.13;;;1.30;99.90;;;;;;5070890;28;20664;-86
2020/12/03 03:47:03;;;;;;;27.63;16.17;;;1.30;99.90;;;;;;5072257;28;20240;-84
2020/12/03 03:49:30;;;;;;;27.85;16.40;;;1.30;99.90;;;;;;5072972;28;20288;-84
2020/12/03 03:51:56;;;;;;;29.55;16.08;;;1.30;99.90;;;;;;5072978;28;20225;-85
2020/12/03 03:54:23;;;;;;;28.73;16.67;;;1.30;99.90;;;;;;5072699;28;20343;-84
2020/12/03 03:56:49;;;;;;;29.77;16.25;;;1.30;99.90;;;;;;5069534;28;20255;-85
2020/12/03 03:59:15;;;;;;;31.20;16.13;;;1.30;99.90;;;;;;5072415;28;20247;-85
2020/12/03 04:01:42;;;;;;;31.92;14.75;;;1.30;99.90;;;;;;5071427;28;20288;-84
2020/12/03 04:04:09;;;;;;;29.67;15.07;;;1.30;99.90;;;;;;5072415;28;20661;-85
2020/12/03 04:06:35;;;;;;;25.52;14.25;;;1.30;99.90;;;;;;5072502;28;20285;-84
2020/12/03 04:09:02;;;;;;;30.85;15.85;;;1.30;99.90;;;;;;5072999;28;20304;-86
2020/12/03 04:11:29;;;;;;;31.95;15.90;;;1.30;99.90;;;;;;5071340;28;20272;-84
2020/12/03 04:13:55;;;;;;;34.33;21.48;;;1.30;99.90;;;;;;5073676;28;20256;-85
2020/12/03 04:16:23;;;;;;;31.27;14.32;;;1.30;99.90;;;;;;5075307;28;20308;-85
2020/12/03 04:18:49;;;;;;;32.13;14.70;;;1.30;99.90;;;;;;5076771;28;20805;-84
2020/12/03 04:21:16;;;;;;;36.28;15.30;;;1.30;99.90;;;;;;5076476;28;20296;-85
2020/12/03 04:23:43;;;;;;;27.92;14.07;;;1.30;99.90;;;;;;5076205;28;20691;-84
2020/12/03 04:26:11;;;;;;;33.58;17.85;;;1.40;99.90;;;;;;5075869;28;20284;-84
2020/12/03 04:28:37;;;;;;;34.03;17.00;;;1.40;99.90;;;;;;5076067;28;20292;-84
2020/12/03 04:31:04;;;;;;;28.73;15.30;;;1.40;99.90;;;;;;5074757;28;20315;-84
2020/12/03 04:33:30;;;;;;;27.77;14.75;;;1.40;99.90;;;;;;5074705;28;20198;-84
2020/12/03 04:35:56;;;;;;;27.50;15.48;;;1.40;99.90;;;;;;5075926;28;20298;-84
2020/12/03 04:38:24;;;;;;;25.58;16.10;;;1.50;99.90;;;;;;5075750;28;20824;-85
2020/12/03 04:40:52;;;;;;;30.15;15.45;;;1.50;99.90;;;;;;5076030;28;20630;-84
2020/12/03 04:43:27;;;;;;;29.00;15.63;;;1.50;99.90;;;;;;5075815;28;20209;-85
2020/12/03 04:46:00;;;;;;;32.53;14.80;;;1.50;99.90;;;;;;5074501;28;20207;-84
2020/12/03 04:48:49;;;;;;;32.80;15.38;;;1.50;99.90;;;;;;5075829;28;20201;-84
2020/12/03 04:51:33;;;;;;;28.08;14.57;;;1.50;99.90;;;;;;5058384;28;20767;-84
2020/12/03 04:54:14;;;;;;;31.13;15.55;;;1.50;99.90;;;;;;5075577;28;20225;-83
2020/12/03 04:56:47;;;;;;;27.20;14.55;;;1.60;99.90;;;;;;5075453;28;20319;-83
2020/12/03 04:59:25;;;;;;;30.98;15.88;;;1.60;99.90;;;;;;5072375;28;20201;-83
2020/12/03 05:02:06;;;;;;;39.13;16.98;;;1.60;99.90;;;;;;5074083;28;20740;-83
2020/12/03 05:04:40;;;;;;;24.92;14.30;;;1.70;99.90;;;;;;5074963;28;20298;-84
2020/12/03 05:07:09;;;;;;;29.77;15.88;;;1.70;99.90;;;;;;5075313;28;20632;-84
2020/12/03 05:09:52;;;;;;;29.20;16.42;;;1.70;99.90;;;;;;5075262;28;20237;-84
2020/12/03 05:12:22;;;;;;;37.58;17.20;;;1.70;99.90;;;;;;5074796;28;20248;-85
2020/12/03 05:14:51;;;;;;;31.77;17.23;;;1.70;99.90;;;;;;5073864;28;20209;-84
2020/12/03 05:17:30;;;;;;;33.22;16.80;;;1.70;99.90;;;;;;5075043;28;20305;-84
2020/12/03 05:20:19;;;;;;;31.27;15.32;;;1.70;99.90;;;;;;5074816;28;20657;-84
2020/12/03 05:22:55;;;;;;;27.60;16.80;;;1.70;99.90;;;;;;5074872;28;20734;-84
2020/12/03 05:25:23;;;;;;;29.85;14.55;;;1.80;99.90;;;;;;5074159;28;20205;-84
2020/12/03 05:27:52;;;;;;;30.52;16.65;;;1.80;99.90;;;;;;5074929;28;20212;-83
2020/12/03 05:30:19;;;;;;;30.27;16.73;;;1.70;99.90;;;;;;5073630;28;20212;-85
2020/12/03 05:32:47;;;;;;;34.05;15.65;;;1.80;99.90;;;;;;5074808;28;20273;-84
2020/12/03 05:35:13;;;;;;;23.88;16.33;;;1.80;99.90;;;;;;5074427;28;20620;-84
2020/12/03 05:37:40;;;;;;;28.52;16.10;;;1.80;99.90;;;;;;5074744;28;20293;-83
2020/12/03 05:40:19;;;;;;;25.65;15.95;;;1.80;99.90;;;;;;5074640;28;20240;-83
2020/12/03 05:42:48;;;;;;;31.38;16.05;;;1.80;99.90;;;;;;5074914;28;20302;-85
2020/12/03 05:45:20;;;;;;;30.73;17.23;;;1.80;99.90;;;;;;5073625;28;20292;-84
2020/12/03 05:47:49;;;;;;;30.42;16.40;;;1.80;99.90;;;;;;5074497;28;20289;-83
2020/12/03 05:50:33;;;;;;;31.10;16.63;;;1.80;99.90;;;;;;5074414;28;20716;-83
2020/12/03 05:53:03;;;;;;;26.33;14.35;;;1.80;99.90;;;;;;5075204;28;20319;-84
2020/12/03 05:55:31;;;;;;;29.08;16.80;;;1.80;99.90;;;;;;5097130;28;20205;-83
2020/12/03 05:58:14;;;;;;;31.85;16.83;;;1.80;99.90;;;;;;5097785;28;20414;-84
2020/12/03 06:00:40;;;;;;;34.38;17.20;;;1.90;99.90;;;;;;5032459;28;20237;-84
2020/12/03 06:03:37;;;;;;;32.90;16.08;;;1.90;99.90;;;;;;5075345;28;20240;-84
2020/12/03 06:06:35;;;;;;;35.35;17.17;;;1.80;99.90;;;;;;5040557;28;20644;-83
2020/12/03 06:09:13;;;;;;;33.80;17.10;;;1.90;99.90;;;;;;5074247;28;20296;-84
2020/12/03 06:11:50;;;;;;;28.88;13.23;;;1.90;99.90;;;;;;5073743;28;20229;-86
2020/12/03 06:14:59;;;;;;;37.10;17.90;;;1.90;99.90;;;;;;5073973;28;20320;-84
2020/12/03 06:17:39;;;;;;;31.17;16.02;;;1.80;99.90;;;;;;5026496;28;20288;-85
2020/12/03 06:20:21;;;;;;;27.63;14.07;;;1.80;99.90;;;;;;5073694;28;20205;-85
2020/12/03 06:23:04;;;;;;;31.88;15.40;;;1.80;99.90;;;;;;5073791;28;20201;-85
2020/12/03 06:25:43;;;;;;;30.55;17.80;;;1.80;99.90;;;;;;5073645;28;20567;-85
2020/12/03 06:28:25;;;;;;;43.05;21.75;;;1.80;99.90;;;;;;5073745;28;20695;-84
2020/12/03 06:30:58;;;;;;;36.22;20.48;;;1.80;99.90;;;;;;5072324;28;20293;-86
2020/12/03 06:33:39;;;;;;;26.73;15.38;;;1.80;99.90;;;;;;5072737;28;20288;-84
2020/12/03 06:36:19;;;;;;;26.05;14.63;;;1.90;99.90;;;;;;5073240;28;20288;-85
2020/12/03 06:38:59;;;;;;;26.65;12.23;;;1.90;99.90;;;;;;5070466;28;20204;-85
2020/12/03 06:41:38;;;;;;;30.25;13.80;;;1.90;99.90;;;;;;5073770;28;20587;-85
2020/12/03 06:44:14;;;;;;;33.45;15.38;;;1.90;99.90;;;;;;5073282;28;20291;-85
2020/12/03 06:47:14;;;;;;;22.70;11.75;;;1.80;99.90;;;;;;5071499;28;20756;-85
2020/12/03 06:50:14;;;;;;;25.95;13.98;;;1.80;99.90;;;;;;5073442;28;20296;-85
2020/12/03 06:53:13;;;;;;;28.38;15.57;;;1.90;99.90;;;;;;5073290;28;20229;-85
2020/12/03 06:55:57;;;;;;;28.20;14.98;;;1.90;99.90;;;;;;5073483;28;20292;-84
2020/12/03 06:59:02;;;;;;;23.98;13.48;;;1.90;99.90;;;;;;5073390;28;20288;-85
2020/12/03 07:02:14;;;;;;;30.52;13.48;;;2.00;99.90;;;;;;5070316;28;20205;-85
2020/12/03 07:05:10;;;;;;;25.17;13.40;;;2.00;99.90;;;;;;5072228;28;20296;-84
2020/12/03 07:08:02;;;;;;;26.80;14.45;;;2.00;99.90;;;;;;5053000;28;20628;-84
2020/12/03 07:11:19;;;;;;;24.83;14.35;;;2.00;99.90;;;;;;5053008;28;20285;-84
2020/12/03 07:14:23;;;;;;;27.63;13.80;;;2.00;99.90;;;;;;5052846;28;20258;-83
2020/12/03 07:17:27;;;;;;;25.08;13.15;;;2.10;99.90;;;;;;5051743;28;20297;-84
2020/12/03 07:20:43;;;;;;;22.48;11.95;;;2.10;99.90;;;;;;5052995;28;20280;-85
2020/12/03 07:23:13;;;;;;;25.75;14.35;;;2.10;99.90;;;;;;5053511;28;20205;-84
2020/12/03 07:25:42;;;;;;;26.75;12.02;;;2.10;99.90;;;;;;5053945;28;20252;-84
2020/12/03 07:28:17;;;;;;;22.58;12.77;;;2.10;99.90;;;;;;5072999;28;20186;-84
2020/12/03 07:30:49;;;;;;;31.40;14.27;;;2.10;99.90;;;;;;5073431;28;20201;-84
2020/12/03 07:33:29;;;;;;;22.35;13.05;;;2.10;99.90;;;;;;5074907;28;20249;-84
2020/12/03 07:36:18;;;;;;;25.55;12.60;;;2.10;99.90;;;;;;5066041;28;20213;-84
2020/12/03 07:38:51;;;;;;;23.20;13.20;;;2.10;99.90;;;;;;5073122;28;20240;-83
2020/12/03 07:41:20;;;;;;;25.17;13.18;;;2.20;99.90;;;;;;5073002;28;20217;-83
2020/12/03 07:43:47;;;;;;;24.88;12.38;;;2.20;99.90;;;;;;5072879;28;20288;-83
2020/12/03 07:46:38;;;;;;;19.73;12.23;;;2.10;99.90;;;;;;5072094;28;20225;-83
2020/12/03 07:49:05;;;;;;;25.67;13.65;;;2.30;99.90;;;;;;5054189;28;20208;-82
2020/12/03 07:51:34;;;;;;;28.58;15.23;;;2.40;99.90;;;;;;5076618;28;20229;-82
2020/12/03 07:54:24;;;;;;;25.63;13.35;;;2.40;99.90;;;;;;5076323;28;20292;-82
2020/12/03 07:56:51;;;;;;;21.17;11.75;;;2.40;99.90;;;;;;5076609;28;20209;-83
2020/12/03 07:59:33;;;;;;;20.75;13.13;;;2.40;99.90;;;;;;5076633;28;20296;-86
2020/12/03 08:02:01;;;;;;;21.25;12.95;;;2.50;99.90;;;;;;5075250;28;20734;-83
2020/12/03 08:04:33;;;;;;;23.75;11.77;;;2.50;99.90;;;;;;5079273;28;20206;-87
2020/12/03 08:07:27;;;;;;;21.98;12.18;;;2.50;99.90;;;;;;5076507;28;20728;-84
2020/12/03 08:09:54;;;;;;;20.80;12.00;;;2.60;99.90;;;;;;5057648;28;20297;-86
2020/12/03 08:12:22;;;;;;;20.90;11.27;;;2.60;99.90;;;;;;5076257;28;20328;-87
2020/12/03 08:14:50;;;;;;;22.95;11.05;;;2.70;99.90;;;;;;5075468;28;20221;-87
2020/12/03 08:17:45;;;;;;;24.48;13.05;;;2.70;99.90;;;;;;5076416;28;20209;-87
2020/12/03 08:20:40;;;;;;;96.13;44.55;;;2.80;99.90;;;;;;5076169;28;20288;-89
2020/12/03 08:23:11;;;;;;;62.17;30.42;;;2.80;99.90;;;;;;5076388;28;20225;-88
2020/12/03 08:25:46;;;;;;;32.75;16.52;;;2.90;99.90;;;;;;5071244;28;20259;-87
2020/12/03 08:28:23;;;;;;;25.58;11.93;;;2.90;99.90;;;;;;5076047;28;20204;-88
2020/12/03 08:30:52;;;;;;;24.60;13.48;;;3.00;99.90;;;;;;5075125;28;20292;-87
2020/12/03 08:33:27;;;;;;;69.20;31.75;;;3.00;99.90;;;;;;5076082;28;20230;-87
2020/12/03 08:35:57;;;;;;;45.15;24.08;;;3.10;99.90;;;;;;5075969;28;20230;-87
2020/12/03 08:38:29;;;;;;;27.48;14.65;;;3.00;99.90;;;;;;5075654;28;20209;-86
2020/12/03 08:40:57;;;;;;;21.00;12.80;;;3.00;99.90;;;;;;5075783;28;20677;-87
2020/12/03 08:43:25;;;;;;;23.58;13.50;;;3.10;99.90;;;;;;5075992;28;20573;-88
2020/12/03 08:46:00;;;;;;;19.98;11.60;;;3.10;99.90;;;;;;5074745;28;20229;-87
2020/12/03 08:48:32;;;;;;;18.85;10.38;;;3.20;99.90;;;;;;5076240;28;20283;-87
2020/12/03 08:51:00;;;;;;;18.33;10.27;;;3.30;99.90;;;;;;5075931;28;20201;-87
2020/12/03 08:53:29;;;;;;;16.00;10.25;;;3.40;99.90;;;;;;5075634;28;20256;-87
2020/12/03 08:56:04;;;;;;;21.38;9.52;;;3.50;99.90;;;;;;5075525;28;20237;-87
2020/12/03 08:58:31;;;;;;;16.42;10.05;;;3.50;99.90;;;;;;5075649;28;20241;-87
2020/12/03 09:01:01;;;;;;;21.13;13.57;;;3.50;99.90;;;;;;5067801;28;20326;-87
2020/12/03 09:03:32;;;;;;;15.70;10.93;;;3.50;99.90;;;;;;5075841;28;20237;-86
2020/12/03 09:06:00;;;;;;;21.80;11.70;;;3.60;99.90;;;;;;5075581;28;20301;-88
2020/12/03 09:08:26;;;;;;;14.52;10.23;;;3.60;99.90;;;;;;5075670;28;20208;-87
2020/12/03 09:10:57;;;;;;;17.70;11.85;;;3.70;99.90;;;;;;5077125;28;20236;-87
2020/12/03 09:13:23;;;;;;;16.58;10.15;;;3.70;99.90;;;;;;5077819;28;20245;-87
2020/12/03 09:15:53;;;;;;;17.65;9.63;;;3.90;99.90;;;;;;5054170;28;20297;-87
2020/12/03 09:18:20;;;;;;;15.80;11.30;;;4.00;99.90;;;;;;5055811;28;20202;-87
2020/12/03 09:20:47;;;;;;;15.55;9.35;;;4.10;99.90;;;;;;5055341;28;20213;-87
2020/12/03 09:23:18;;;;;;;16.35;10.48;;;4.20;99.90;;;;;;5055178;28;20289;-88
2020/12/03 09:25:45;;;;;;;18.15;10.73;;;4.30;99.90;;;;;;5055163;28;20214;-85
2020/12/03 09:28:12;;;;;;;18.95;10.40;;;4.20;99.90;;;;;;5055318;28;20266;-87
2020/12/03 09:30:44;;;;;;;16.45;10.88;;;4.10;99.90;;;;;;5053934;28;20285;-84
2020/12/03 09:33:14;;;;;;;16.20;10.93;;;4.10;99.90;;;;;;5054767;28;20292;-89
2020/12/03 09:35:42;;;;;;;20.48;11.27;;;4.20;99.90;;;;;;5054869;28;20205;-85
2020/12/03 09:38:10;;;;;;;19.00;11.93;;;4.10;99.90;;;;;;5065332;28;20576;-83
2020/12/03 09:40:37;;;;;;;22.35;11.27;;;3.90;99.90;;;;;;5074881;28;20202;-85
2020/12/03 09:43:05;;;;;;;19.77;13.02;;;3.90;99.90;;;;;;5074894;28;20202;-86
2020/12/03 09:45:36;;;;;;;28.13;16.27;;;3.90;99.90;;;;;;5073299;28;20284;-84
2020/12/03 09:48:04;;;;;;;16.85;11.13;;;4.00;99.90;;;;;;5074615;28;20255;-84
2020/12/03 09:50:31;;;;;;;17.35;12.63;;;4.10;99.90;;;;;;5074505;28;20292;-85
2020/12/03 09:52:58;;;;;;;16.83;10.63;;;4.10;99.90;;;;;;5074175;28;20237;-84
2020/12/03 09:55:26;;;;;;;17.67;9.88;;;4.00;99.90;;;;;;5074234;28;20269;-85
2020/12/03 09:57:54;;;;;;;22.52;14.30;;;3.90;99.90;;;;;;5074317;28;20198;-84
2020/12/03 10:00:28;;;;;;;16.90;11.68;;;4.00;99.90;;;;;;5073171;28;20384;-85
2020/12/03 10:03:22;;;;;;;18.00;12.68;;;4.10;99.90;;;;;;5074460;28;20197;-88
2020/12/03 10:06:09;;;;;;;15.82;11.60;;;4.10;99.90;;;;;;5074331;28;20201;-84
2020/12/03 10:08:49;;;;;;;15.60;10.40;;;4.30;99.90;;;;;;5073526;28;20664;-85
2020/12/03 10:11:43;;;;;;;15.13;8.45;;;4.20;99.90;;;;;;5073799;28;20208;-83
2020/12/03 10:14:40;;;;;;;17.67;12.52;;;4.30;99.90;;;;;;5073929;28;20212;-84
2020/12/03 10:17:10;;;;;;;13.23;8.82;;;4.30;99.90;;;;;;5073468;28;20224;-84
2020/12/03 10:19:41;;;;;;;13.00;9.50;;;4.40;99.90;;;;;;5073814;28;20213;-83
2020/12/03 10:22:11;;;;;;;13.43;8.50;;;4.30;99.90;;;;;;5073877;28;20292;-83
2020/12/03 10:24:43;;;;;;;13.63;10.27;;;4.40;99.90;;;;;;5073427;28;20205;-84
2020/12/03 10:27:19;;;;;;;18.05;9.52;;;4.40;99.90;;;;;;5073601;28;20237;-85
2020/12/03 10:29:53;;;;;;;15.30;9.57;;;4.50;99.90;;;;;;5072348;28;20209;-82
2020/12/03 10:32:21;;;;;;;15.10;8.88;;;4.50;99.90;;;;;;5073766;28;20233;-84
2020/12/03 10:34:48;;;;;;;15.48;9.60;;;4.60;99.90;;;;;;5073851;28;20236;-85
2020/12/03 10:37:27;;;;;;;31.50;9.05;;;4.50;99.90;;;;;;5076120;28;20295;-89
2020/12/03 10:39:59;;;;;;;12.82;8.23;;;4.80;99.90;;;;;;5074024;28;20345;-85
2020/12/03 10:42:32;;;;;;;16.33;9.00;;;4.80;99.90;;;;;;5082616;28;20265;-89
2020/12/03 10:45:06;;;;;;;13.95;8.45;;;4.60;99.90;;;;;;5093290;28;20205;-85
2020/12/03 10:47:45;;;;;;;14.70;9.55;;;4.40;99.90;;;;;;5090088;28;20212;-85
2020/12/03 10:50:16;;;;;;;15.88;10.63;;;4.30;99.90;;;;;;5075514;28;20189;-86
2020/12/03 10:52:44;;;;;;;13.25;8.57;;;4.20;99.90;;;;;;5075025;28;20320;-86
2020/12/03 10:55:11;;;;;;;14.25;8.57;;;4.10;99.90;;;;;;5073662;28;20229;-86
2020/12/03 10:57:44;;;;;;;12.48;8.20;;;4.20;99.90;;;;;;5073718;28;20251;-86
2020/12/03 11:00:11;;;;;;;15.05;9.18;;;4.10;99.90;;;;;;5072793;28;20197;-89
2020/12/03 11:02:42;;;;;;;12.20;7.97;;;4.30;99.90;;;;;;5073559;28;20721;-88
2020/12/03 11:05:09;;;;;;;15.50;8.57;;;4.40;99.90;;;;;;5067983;28;20641;-86
2020/12/03 11:07:37;;;;;;;16.70;8.55;;;4.60;99.90;;;;;;5073528;28;20201;-88
2020/12/03 11:10:04;;;;;;;13.85;10.13;;;4.80;99.90;;;;;;5073213;28;20652;-86
2020/12/03 11:12:31;;;;;;;11.80;8.25;;;4.90;99.90;;;;;;5073032;28;20249;-90
2020/12/03 11:15:03;;;;;;;13.00;8.57;;;5.00;99.90;;;;;;5072626;28;20212;-90
2020/12/03 11:18:02;;;;;;;14.45;8.32;;;5.20;99.90;;;;;;5073748;28;20202;-86
2020/12/03 11:20:32;;;;;;;20.38;11.63;;;5.20;99.90;;;;;;5067585;28;20206;-86
2020/12/03 11:23:08;;;;;;;13.40;8.85;;;5.30;99.90;;;;;;5072618;28;20231;-85
2020/12/03 11:25:36;;;;;;;15.00;9.82;;;5.30;99.90;;;;;;5072714;28;20207;-86
2020/12/03 11:28:28;;;;;;;10.93;8.27;;;5.30;99.90;;;;;;5073035;28;20212;-85
2020/12/03 11:31:01;;;;;;;13.18;8.90;;;5.30;99.90;;;;;;5071907;28;20217;-88
2020/12/03 11:33:30;;;;;;;17.00;9.95;;;5.30;99.90;;;;;;5072837;28;20229;-84
2020/12/03 11:36:05;;;;;;;16.15;9.10;;;5.30;99.90;;;;;;5073036;28;20259;-87
2020/12/03 11:38:32;;;;;;;13.00;8.77;;;5.30;99.90;;;;;;5067412;28;20239;-85
2020/12/03 11:41:02;;;;;;;14.55;7.70;;;5.20;99.90;;;;;;5071750;28;20205;-86
2020/12/03 11:49:12;;;;;;;10.43;7.10;;;5.00;99.90;;;;;;5110939;28;20211;-86
2020/12/03 11:51:39;;;;;;;8.68;6.97;;;4.90;99.90;;;;;;5111129;28;20204;-86
2020/12/03 11:54:07;;;;;;;9.88;6.50;;;4.90;99.90;;;;;;5110748;28;20204;-85
2020/12/03 11:56:35;;;;;;;11.07;7.88;;;4.80;99.90;;;;;;5110927;28;20283;-86
2020/12/03 11:59:14;;;;;;;10.20;6.75;;;4.80;99.90;;;;;;5110707;28;20301;-85
2020/12/03 12:01:50;;;;;;;9.43;5.35;;;4.80;99.90;;;;;;5109457;28;20294;-86
2020/12/03 12:04:19;;;;;;;15.88;8.15;;;5.00;99.90;;;;;;5110314;28;20220;-89
2020/12/03 12:06:57;;;;;;;14.00;7.30;;;5.10;99.90;;;;;;5110657;28;20199;-89
2020/12/03 12:09:31;;;;;;;11.45;7.25;;;5.10;99.90;;;;;;5110484;28;20211;-87
2020/12/03 12:11:58;;;;;;;10.88;7.03;;;5.20;99.90;;;;;;5110426;28;20663;-88
2020/12/03 12:14:24;;;;;;;9.52;6.65;;;5.30;99.90;;;;;;5110669;28;20297;-87
2020/12/03 12:16:53;;;;;;;8.90;6.10;;;5.30;99.90;;;;;;5109440;28;20264;-87
2020/12/03 12:19:19;;;;;;;9.25;5.57;;;5.10;99.90;;;;;;5110491;28;20204;-87
2020/12/03 12:21:45;;;;;;;8.18;6.07;;;5.20;99.90;;;;;;5110008;28;20257;-87
2020/12/03 12:24:12;;;;;;;7.05;5.50;;;5.00;99.90;;;;;;5110061;28;20254;-86
2020/12/03 12:26:38;;;;;;;22.10;14.02;;;5.20;99.90;;;;;;5111848;28;20638;-87
2020/12/03 12:29:05;;;;;;;15.15;8.40;;;5.20;99.90;;;;;;5112685;28;20205;-86
2020/12/03 12:31:32;;;;;;;6.45;5.63;;;5.40;99.90;;;;;;5108166;28;20203;-86
2020/12/03 12:33:59;;;;;;;11.40;6.30;;;5.40;99.90;;;;;;5109184;28;20254;-86
2020/12/03 12:36:26;;;;;;;8.85;6.93;;;5.30;99.90;;;;;;5109958;28;20211;-86
2020/12/03 12:38:53;;;;;;;8.00;5.25;;;5.30;99.90;;;;;;5111486;28;20287;-86
2020/12/03 12:41:20;;;;;;;6.93;5.85;;;5.20;99.90;;;;;;5111159;28;20279;-86
2020/12/03 12:43:47;;;;;;;7.65;5.47;;;5.20;99.90;;;;;;5113176;28;20235;-85
2020/12/03 12:46:13;;;;;;;8.68;5.22;;;5.10;99.90;;;;;;5110851;28;20319;-86
2020/12/03 12:48:39;;;;;;;8.27;5.30;;;5.00;99.90;;;;;;5114114;28;20200;-85
2020/12/03 12:51:07;;;;;;;8.30;6.70;;;5.00;99.90;;;;;;5113632;28;20681;-86
2020/12/03 12:53:34;;;;;;;9.18;5.13;;;5.00;99.90;;;;;;5110331;28;20296;-86
2020/12/03 12:56:00;;;;;;;8.43;5.78;;;5.00;99.90;;;;;;5106406;28;20296;-86
2020/12/03 12:58:27;;;;;;;8.55;5.97;;;5.00;99.90;;;;;;5095706;28;20614;-87
2020/12/03 13:00:53;;;;;;;10.65;8.35;;;5.00;99.90;;;;;;5095226;28;20226;-87
2020/12/03 13:03:19;;;;;;;9.40;5.63;;;5.00;99.90;;;;;;5095996;28;20292;-87
2020/12/03 13:05:46;;;;;;;7.35;5.43;;;5.00;99.90;;;;;;5095735;28;20271;-87
2020/12/03 13:08:13;;;;;;;8.85;5.88;;;5.10;99.90;;;;;;5096975;28;20233;-87
2020/12/03 13:10:40;;;;;;;9.70;7.20;;;5.10;99.90;;;;;;5095577;28;20291;-86